Time;durP1;ratioP1;P1;durP2;ratioP2;P2;SDS_P1;SDS_P2;PMS_P1;PMS_P2;Temp;Humidity;BMP_temperature;BMP_pressure;BME280_temperature;BME280_humidity;BME280_pressure;Samples;Min_cycle;Max_cycle;Signal;HPM_P1;HPM_P2
2022/09/08 00:00:20;;;;;;;;;;;;;;;22.75;71.64;96312.49;181288;293;619970;-48
2022/09/08 00:01:24;;;;;;;;;;;;;;;22.75;71.66;96316.64;180427;293;620547;-45
2022/09/08 00:02:26;;;;;;;;;;;;;;;22.73;71.67;96314.81;180700;293;619465;-46
2022/09/08 00:03:30;;;;;;;;;;;;;;;22.72;71.68;96316.78;180261;294;621191;-44
2022/09/08 00:04:32;;;;;;;;;;;;;;;22.70;71.69;96315.55;180503;294;620402;-47
2022/09/08 00:05:34;;;;;;;;;;;;;;;22.71;71.72;96322.66;181130;292;619607;-46
2022/09/08 00:06:35;;;;;;;;;;;;;;;22.69;71.70;96317.50;180814;293;621500;-45
2022/09/08 00:07:38;;;;;;;;;;;;;;;22.70;71.74;96314.96;180380;294;620719;-44
2022/09/08 00:08:40;;;;;;;;;;;;;;;22.67;71.75;96317.06;180736;292;620084;-52
2022/09/08 00:09:42;;;;;;;;;;;;;;;22.69;71.75;96319.47;180277;294;623949;-47
2022/09/08 00:10:44;;;;;;;;;;;;;;;22.67;71.75;96312.13;180283;293;619954;-46
2022/09/08 00:11:45;;;;;;;;;;;;;;;22.67;71.76;96312.13;181159;292;620286;-45
2022/09/08 00:12:48;;;;;;;;;;;;;;;22.66;71.78;96309.14;181164;292;620336;-47
2022/09/08 00:13:50;;;;;;;;;;;;;;;22.65;71.80;96308.89;180563;293;620257;-48
2022/09/08 00:14:51;;;;;;;;;;;;;;;22.65;71.83;96308.89;180418;294;620409;-48
2022/09/08 00:15:54;;;;;;;;;;;;;;;22.65;71.83;96307.52;180332;294;618650;-48
2022/09/08 00:16:56;;;;;;;;;;;;;;;22.65;71.84;96300.61;180261;294;620365;-47
2022/09/08 00:17:58;;;;;;;;;;;;;;;22.63;71.89;96297.41;181214;292;621042;-49
2022/09/08 00:19:00;;;;;;;;;;;;;;;22.63;71.91;96298.20;181278;292;620399;-45
2022/09/08 00:20:01;;;;;;;;;;;;;;;22.63;71.90;96297.41;180760;292;620111;-49
2022/09/08 00:21:03;;;;;;;;;;;;;;;22.61;71.91;96291.45;180335;293;620470;-48
2022/09/08 00:22:05;;;;;;;;;;;;;;;22.60;71.92;96287.88;180570;294;621471;-50
2022/09/08 00:23:07;;;;;;;;;;;;;;;22.62;71.92;96291.66;180972;293;620788;-46
2022/09/08 00:24:09;;;;;;;;;;;;;;;22.61;71.95;96285.92;180362;293;619224;-47
2022/09/08 00:25:11;;;;;;;;;;;;;;;22.60;71.97;96282.94;180800;293;620426;-55
2022/09/08 00:26:13;;;;;;;;;;;;;;;22.58;72.00;96276.98;180867;293;621340;-45
2022/09/08 00:27:15;;;;;;;;;;;;;;;22.58;72.01;96274.22;180891;293;620370;-45
2022/09/08 00:28:17;;;;;;;;;;;;;;;22.57;72.04;96275.38;181072;293;621425;-45
2022/09/08 00:29:19;;;;;;;;;;;;;;;22.58;72.06;96276.98;180717;293;621066;-45
2022/09/08 00:30:21;;;;;;;;;;;;;;;22.55;72.09;96266.66;180735;293;620503;-50
2022/09/08 00:31:23;;;;;;;;;;;;;;;22.55;72.05;96267.45;180774;293;620102;-48
2022/09/08 00:32:25;;;;;;;;;;;;;;;22.55;72.09;96266.08;180683;293;620300;-45
2022/09/08 00:33:29;;;;;;;;;;;;;;;22.56;72.11;96266.87;180630;293;621209;-48
2022/09/08 00:34:30;;;;;;;;;;;;;;;22.55;72.10;96261.14;181115;293;620169;-47
2022/09/08 00:35:32;;;;;;;;;;;;;;;22.54;72.13;96263.06;180953;293;620239;-45
2022/09/08 00:36:34;;;;;;;;;;;;;;;22.53;72.15;96262.27;180891;293;621684;-45
2022/09/08 00:37:36;;;;;;;;;;;;;;;22.51;72.17;96256.30;180814;293;619437;-50
2022/09/08 00:38:38;;;;;;;;;;;;;;;22.55;72.19;96262.52;180774;293;620996;-45
2022/09/08 00:39:40;;;;;;;;;;;;;;;22.52;72.20;96260.67;180974;293;621356;-48
2022/09/08 00:40:45;;;;;;;;;;;;;;;22.52;72.24;96260.67;180724;292;621164;-46
2022/09/08 00:41:46;;;;;;;;;;;;;;;22.53;72.25;96269.17;180580;293;587670;-46
2022/09/08 00:42:48;;;;;;;;;;;;;;;22.52;72.25;96266.19;180325;293;621145;-45
2022/09/08 00:43:50;;;;;;;;;;;;;;;22.51;72.27;96264.59;180641;294;620280;-50
2022/09/08 00:44:53;;;;;;;;;;;;;;;22.51;72.26;96267.94;180422;293;620366;-47
2022/09/08 00:45:55;;;;;;;;;;;;;;;22.49;72.28;96267.49;180534;294;621511;-44
2022/09/08 00:46:57;;;;;;;;;;;;;;;22.48;72.30;96258.41;180468;293;621690;-44
2022/09/08 00:47:59;;;;;;;;;;;;;;;22.48;72.31;96266.70;180537;293;621157;-45
2022/09/08 00:49:02;;;;;;;;;;;;;;;22.48;72.35;96270.84;180310;294;622388;-51
2022/09/08 00:50:04;;;;;;;;;;;;;;;22.48;72.39;96268.66;180359;294;622183;-49
2022/09/08 00:51:06;;;;;;;;;;;;;;;22.49;72.40;96266.11;181073;292;619752;-46
2022/09/08 00:52:08;;;;;;;;;;;;;;;22.47;72.42;96269.23;180425;294;620017;-47
2022/09/08 00:53:10;;;;;;;;;;;;;;;22.45;72.44;96264.66;180594;293;621279;-44
2022/09/08 00:54:12;;;;;;;;;;;;;;;22.44;72.45;96257.53;180769;294;621106;-44
2022/09/08 00:55:14;;;;;;;;;;;;;;;22.43;72.47;96260.63;180450;294;622294;-44
2022/09/08 00:56:16;;;;;;;;;;;;;;;22.44;72.48;96258.91;180434;294;620248;-50
2022/09/08 00:57:18;;;;;;;;;;;;;;;22.45;72.47;96263.28;180335;294;621312;-44
2022/09/08 00:58:20;;;;;;;;;;;;;;;22.45;72.49;96254.19;181444;292;620255;-47
2022/09/08 00:59:23;;;;;;;;;;;;;;;22.43;72.51;96264.19;181484;292;620702;-44
2022/09/08 01:00:25;;;;;;;;;;;;;;;22.43;72.50;96253.73;181044;292;622840;-45
2022/09/08 01:01:27;;;;;;;;;;;;;;;22.45;72.51;96256.95;180597;294;619697;-46
2022/09/08 01:02:30;;;;;;;;;;;;;;;22.44;72.49;96256.73;180311;294;620253;-45
2022/09/08 01:03:32;;;;;;;;;;;;;;;22.44;72.50;96252.59;180441;294;620458;-48
2022/09/08 01:04:34;;;;;;;;;;;;;;;22.41;72.51;96249.14;180523;294;620418;-46
2022/09/08 01:05:36;;;;;;;;;;;;;;;22.41;72.54;96249.95;180903;293;621445;-49
2022/09/08 01:13:18;;;;;;;;;;;;;;;22.40;72.62;96239.27;180837;293;582472;-46
2022/09/08 01:14:20;;;;;;;;;;;;;;;22.40;72.64;96244.20;180921;293;619331;-45
2022/09/08 01:15:22;;;;;;;;;;;;;;;22.39;72.61;96239.84;180550;293;620748;-46
2022/09/08 01:16:24;;;;;;;;;;;;;;;22.37;72.62;96238.61;180075;294;622778;-45
2022/09/08 01:17:26;;;;;;;;;;;;;;;22.36;72.64;96233.66;180914;292;620039;-51
2022/09/08 01:18:28;;;;;;;;;;;;;;;22.38;72.63;96238.25;181119;292;620344;-45
2022/09/08 01:19:30;;;;;;;;;;;;;;;22.36;72.67;96233.66;181098;292;620649;-47
2022/09/08 01:20:33;;;;;;;;;;;;;;;22.34;72.67;96235.98;180225;294;620029;-44
2022/09/08 01:21:35;;;;;;;;;;;;;;;22.33;72.69;96232.18;180243;294;620052;-45
2022/09/08 01:22:37;;;;;;;;;;;;;;;22.35;72.70;96236.20;180607;294;621084;-48
2022/09/08 01:23:39;;;;;;;;;;;;;;;22.33;72.72;96234.39;181535;292;620706;-44
2022/09/08 01:24:41;;;;;;;;;;;;;;;22.36;72.72;96243.33;181420;292;621516;-50
2022/09/08 01:25:43;;;;;;;;;;;;;;;22.32;72.72;96233.34;180987;292;621608;-46
2022/09/08 01:26:46;;;;;;;;;;;;;;;22.32;72.73;96235.52;181287;292;621115;-45
2022/09/08 01:27:48;;;;;;;;;;;;;;;22.33;72.75;96233.01;180805;293;619428;-48
2022/09/08 01:28:50;;;;;;;;;;;;;;;22.33;72.77;96234.39;180232;294;619290;-48
2022/09/08 01:29:52;;;;;;;;;;;;;;;22.30;72.80;96226.80;180636;292;619965;-47
2022/09/08 01:30:54;;;;;;;;;;;;;;;22.31;72.81;96226.22;180828;292;620421;-46
2022/09/08 01:31:56;;;;;;;;;;;;;;;22.31;72.82;96227.02;181498;292;620920;-50
2022/09/08 01:32:58;;;;;;;;;;;;;;;22.29;72.83;96225.20;181507;292;619850;-45
2022/09/08 01:34:00;;;;;;;;;;;;;;;22.29;72.86;96217.50;181262;292;620341;-45
2022/09/08 01:35:02;;;;;;;;;;;;;;;22.32;72.86;96230.00;180952;293;620430;-49
2022/09/08 01:36:04;;;;;;;;;;;;;;;22.31;72.86;96226.22;180451;293;620309;-47
2022/09/08 01:37:06;;;;;;;;;;;;;;;22.30;72.89;96224.62;181150;293;623120;-47
2022/09/08 01:38:08;;;;;;;;;;;;;;;22.29;72.88;96218.30;181096;293;620553;-48
2022/09/08 01:39:10;;;;;;;;;;;;;;;22.29;72.88;96218.30;180068;294;620465;-49
2022/09/08 01:40:11;;;;;;;;;;;;;;;22.30;72.89;96219.09;181294;293;620503;-48
2022/09/08 01:41:16;;;;;;;;;;;;;;;22.30;72.88;96215.77;180630;293;622521;-49
2022/09/08 01:42:18;;;;;;;;;;;;;;;22.30;72.90;96220.48;180732;293;621082;-47
2022/09/08 01:43:20;;;;;;;;;;;;;;;22.29;72.90;96218.30;180250;294;621479;-45
2022/09/08 01:44:22;;;;;;;;;;;;;;;22.29;72.92;96219.68;181191;292;621619;-44
2022/09/08 01:45:27;;;;;;;;;;;;;;;22.29;72.92;96215.54;180121;294;621527;-48
2022/09/08 01:46:30;;;;;;;;;;;;;;;22.28;72.95;96219.46;180096;294;589624;-46
2022/09/08 01:47:32;;;;;;;;;;;;;;;22.28;72.94;96213.14;180532;294;590444;-49
2022/09/08 01:48:34;;;;;;;;;;;;;;;22.27;72.94;96221.20;180637;294;619431;-51
2022/09/08 01:49:36;;;;;;;;;;;;;;;22.27;72.96;96220.63;180817;292;620663;-50
2022/09/08 01:50:38;;;;;;;;;;;;;;;22.26;72.97;96230.06;180926;293;619200;-46
2022/09/08 01:51:40;;;;;;;;;;;;;;;22.25;73.00;96225.70;180278;294;623132;-45
2022/09/08 01:52:42;;;;;;;;;;;;;;;22.26;73.00;96235.59;181046;292;618665;-44
2022/09/08 01:53:44;;;;;;;;;;;;;;;22.28;73.00;96233.27;180964;293;620203;-45
2022/09/08 01:54:46;;;;;;;;;;;;;;;22.26;73.01;96236.16;181300;292;620696;-54
2022/09/08 01:55:48;;;;;;;;;;;;;;;22.25;73.02;96233.19;181360;292;620392;-45
2022/09/08 01:56:50;;;;;;;;;;;;;;;22.23;73.03;96223.89;181059;292;620807;-45
2022/09/08 01:57:52;;;;;;;;;;;;;;;22.26;73.04;96234.78;181401;292;619784;-45
2022/09/08 01:58:54;;;;;;;;;;;;;;;22.25;73.05;96228.47;181300;292;621291;-50
2022/09/08 01:59:56;;;;;;;;;;;;;;;22.25;73.03;96229.05;181094;292;620344;-48
2022/09/08 02:00:58;;;;;;;;;;;;;;;22.22;73.06;96227.23;180802;293;620941;-46
2022/09/08 02:02:00;;;;;;;;;;;;;;;22.24;73.06;96226.87;181185;292;622175;-45
2022/09/08 02:03:02;;;;;;;;;;;;;;;22.24;73.08;96224.11;181348;292;619330;-50
2022/09/08 02:04:04;;;;;;;;;;;;;;;22.23;73.08;96218.37;181303;292;620486;-48
2022/09/08 02:05:05;;;;;;;;;;;;;;;22.24;73.11;96225.48;181495;292;621531;-43
2022/09/08 02:06:07;;;;;;;;;;;;;;;22.23;73.13;96214.23;181396;292;619163;-44
2022/09/08 02:07:10;;;;;;;;;;;;;;;22.26;73.12;96220.98;181338;292;620366;-49
2022/09/08 02:08:12;;;;;;;;;;;;;;;22.25;73.13;96216.62;181215;292;621426;-49
2022/09/08 02:09:14;;;;;;;;;;;;;;;22.25;73.13;96217.42;180757;292;620786;-49
2022/09/08 02:10:15;;;;;;;;;;;;;;;22.23;73.12;96214.23;180588;293;621366;-48
2022/09/08 02:11:17;;;;;;;;;;;;;;;22.22;73.13;96205.14;180432;293;621739;-46
2022/09/08 02:12:19;;;;;;;;;;;;;;;22.24;73.14;96210.30;180298;293;621206;-44
2022/09/08 02:13:22;;;;;;;;;;;;;;;22.21;73.15;96205.48;180257;294;622307;-50
2022/09/08 02:14:24;;;;;;;;;;;;;;;22.23;73.13;96210.09;180282;294;621135;-47
2022/09/08 02:15:26;;;;;;;;;;;;;;;22.24;73.15;96211.69;180350;294;619209;-48
2022/09/08 02:16:29;;;;;;;;;;;;;;;22.23;73.14;96203.19;180748;293;621602;-44
2022/09/08 02:17:31;;;;;;;;;;;;;;;22.21;73.16;96205.48;180406;293;622752;-50
2022/09/08 02:18:33;;;;;;;;;;;;;;;22.22;73.17;96204.31;180181;293;620368;-46
2022/09/08 02:19:35;;;;;;;;;;;;;;;22.21;73.17;96202.72;180443;293;620738;-46
2022/09/08 02:20:37;;;;;;;;;;;;;;;22.21;73.18;96204.89;180237;293;621661;-45
2022/09/08 02:21:39;;;;;;;;;;;;;;;22.22;73.18;96196.03;180549;293;620904;-44
2022/09/08 02:22:41;;;;;;;;;;;;;;;22.20;73.20;96193.64;180435;293;619954;-54
2022/09/08 02:23:43;;;;;;;;;;;;;;;22.21;73.21;96198.58;180659;293;620985;-46
2022/09/08 02:24:45;;;;;;;;;;;;;;;22.21;73.21;96191.67;180526;293;621429;-48
2022/09/08 02:25:47;;;;;;;;;;;;;;;22.20;73.21;96195.59;180418;293;620261;-47
2022/09/08 02:26:49;;;;;;;;;;;;;;;22.21;73.22;96195.81;180439;294;621403;-44
2022/09/08 02:27:52;;;;;;;;;;;;;;;22.20;73.24;96192.26;180317;294;621510;-51
2022/09/08 02:28:54;;;;;;;;;;;;;;;22.21;73.23;96195.81;180647;293;621325;-48
2022/09/08 02:29:56;;;;;;;;;;;;;;;22.19;73.23;96192.04;180698;294;620648;-50
2022/09/08 02:30:58;;;;;;;;;;;;;;;22.19;73.26;96190.66;179972;294;620237;-46
2022/09/08 02:32:00;;;;;;;;;;;;;;;22.20;73.27;96199.73;180661;293;620260;-48
2022/09/08 02:33:02;;;;;;;;;;;;;;;22.17;73.28;96184.70;180528;293;620362;-48
2022/09/08 02:34:04;;;;;;;;;;;;;;;22.18;73.28;96188.27;180400;293;621642;-45
2022/09/08 02:35:06;;;;;;;;;;;;;;;22.21;73.29;96189.72;180516;294;620447;-50
2022/09/08 02:36:08;;;;;;;;;;;;;;;22.19;73.29;96180.20;180264;293;620108;-47
2022/09/08 02:37:10;;;;;;;;;;;;;;;22.19;73.28;96184.34;180490;294;621288;-46
2022/09/08 02:38:12;;;;;;;;;;;;;;;22.18;73.30;96178.02;180294;293;620636;-44
2022/09/08 02:39:14;;;;;;;;;;;;;;;22.19;73.31;96184.34;180252;294;620244;-45
2022/09/08 02:40:16;;;;;;;;;;;;;;;22.18;73.31;96184.92;180427;294;619780;-48
2022/09/08 02:41:18;;;;;;;;;;;;;;;22.16;73.32;96177.58;180353;293;621434;-45
2022/09/08 02:42:22;;;;;;;;;;;;;;;22.16;73.33;96185.06;180562;293;620123;-46
2022/09/08 02:43:24;;;;;;;;;;;;;;;22.17;73.30;96188.05;180718;293;588122;-53
2022/09/08 02:44:26;;;;;;;;;;;;;;;22.18;73.32;96191.02;180742;293;620738;-45
2022/09/08 02:45:28;;;;;;;;;;;;;;;22.15;73.33;96182.88;180327;293;620833;-47
2022/09/08 02:46:30;;;;;;;;;;;;;;;22.17;73.35;96193.56;180692;294;621148;-50
2022/09/08 02:47:32;;;;;;;;;;;;;;;22.17;73.35;96190.80;180650;293;621321;-47
2022/09/08 02:48:34;;;;;;;;;;;;;;;22.15;73.38;96182.09;180638;294;622191;-46
2022/09/08 02:49:36;;;;;;;;;;;;;;;22.17;73.39;96190.80;180649;293;621563;-44
2022/09/08 02:50:38;;;;;;;;;;;;;;;22.16;73.40;96185.06;180405;293;622019;-48
2022/09/08 02:51:40;;;;;;;;;;;;;;;22.15;73.43;96180.70;180600;293;621599;-45
2022/09/08 02:52:43;;;;;;;;;;;;;;;22.16;73.40;96183.11;180663;293;620024;-45
2022/09/08 02:53:45;;;;;;;;;;;;;;;22.16;73.44;96182.30;180669;293;620098;-50
2022/09/08 02:54:47;;;;;;;;;;;;;;;22.16;73.42;96174.83;180327;293;619734;-49
2022/09/08 02:55:48;;;;;;;;;;;;;;;22.16;73.42;96172.64;180590;293;620876;-47
2022/09/08 02:56:50;;;;;;;;;;;;;;;22.16;73.43;96174.02;180323;294;621959;-45
2022/09/08 02:57:52;;;;;;;;;;;;;;;22.16;73.43;96164.37;180338;293;620114;-44
2022/09/08 02:58:54;;;;;;;;;;;;;;;22.16;73.45;96176.78;180514;293;620703;-45
2022/09/08 02:59:56;;;;;;;;;;;;;;;22.15;73.44;96171.84;180466;293;620430;-50
2022/09/08 03:00:58;;;;;;;;;;;;;;;22.15;73.45;96171.05;180245;294;620372;-45
2022/09/08 03:02:00;;;;;;;;;;;;;;;22.14;73.46;96174.39;180672;293;621089;-45
2022/09/08 03:03:02;;;;;;;;;;;;;;;22.14;73.46;96179.11;180299;293;620254;-50
2022/09/08 03:04:05;;;;;;;;;;;;;;;22.16;73.47;96179.55;180302;294;621496;-47
2022/09/08 03:05:08;;;;;;;;;;;;;;;22.14;73.48;96174.97;180422;293;621156;-45
2022/09/08 03:06:10;;;;;;;;;;;;;;;22.13;73.47;96172.79;180537;293;619988;-45
2022/09/08 03:07:12;;;;;;;;;;;;;;;22.14;73.48;96172.20;180585;293;620671;-44
2022/09/08 03:08:14;;;;;;;;;;;;;;;22.14;73.47;96168.86;180515;293;620172;-46
2022/09/08 03:09:16;;;;;;;;;;;;;;;22.14;73.46;96165.31;180767;292;620534;-49
2022/09/08 03:10:23;;;;;;;;;;;;;;;22.16;73.48;96167.13;181073;292;621302;-45
2022/09/08 03:11:23;;;;;;;;;;;;;;;22.15;73.47;96165.53;181105;293;587383;-50
2022/09/08 03:12:26;;;;;;;;;;;;;;;22.13;73.49;96156.81;180372;293;620368;-48
2022/09/08 03:13:28;;;;;;;;;;;;;;;22.12;73.49;96149.69;180517;293;620312;-45
2022/09/08 03:14:30;;;;;;;;;;;;;;;22.12;73.51;96141.41;180381;293;621222;-45
2022/09/08 03:15:32;;;;;;;;;;;;;;;22.12;73.53;96140.83;180505;293;621022;-47
2022/09/08 03:16:34;;;;;;;;;;;;;;;22.14;73.52;96143.23;180916;292;621232;-45
2022/09/08 03:17:36;;;;;;;;;;;;;;;22.11;73.54;96133.69;180216;294;621280;-50
2022/09/08 03:18:38;;;;;;;;;;;;;;;22.13;73.53;96138.30;180333;294;618948;-45
2022/09/08 03:19:40;;;;;;;;;;;;;;;22.12;73.55;96130.38;180058;294;621248;-47
2022/09/08 03:20:44;;;;;;;;;;;;;;;22.13;73.54;96126.45;180092;294;621405;-45
2022/09/08 03:21:46;;;;;;;;;;;;;;;22.12;73.54;96124.27;180296;294;618798;-48
2022/09/08 03:22:48;;;;;;;;;;;;;;;22.13;73.55;96121.73;180285;294;619505;-44
2022/09/08 03:23:50;;;;;;;;;;;;;;;22.13;73.55;96120.94;180608;294;620301;-52
2022/09/08 03:24:52;;;;;;;;;;;;;;;22.12;73.57;96115.20;180945;292;620500;-44
2022/09/08 03:25:54;;;;;;;;;;;;;;;22.13;73.57;96114.03;181062;293;621173;-47
2022/09/08 03:26:56;;;;;;;;;;;;;;;22.11;73.57;96118.51;180405;294;618762;-46
2022/09/08 03:27:58;;;;;;;;;;;;;;;22.11;73.58;96112.19;181480;292;620338;-46
2022/09/08 03:29:00;;;;;;;;;;;;;;;22.10;73.60;96116.91;180426;294;621327;-46
2022/09/08 03:30:02;;;;;;;;;;;;;;;22.11;73.60;96119.89;180250;294;620775;-47
2022/09/08 03:31:04;;;;;;;;;;;;;;;22.12;73.60;96119.34;180098;294;620364;-46
2022/09/08 03:32:06;;;;;;;;;;;;;;;22.11;73.60;96122.64;180362;294;621185;-44
2022/09/08 03:33:08;;;;;;;;;;;;;;;22.10;73.61;96118.87;180075;294;620928;-47
2022/09/08 03:34:10;;;;;;;;;;;;;;;22.10;73.64;96114.73;181298;292;620937;-44
2022/09/08 03:35:12;;;;;;;;;;;;;;;22.11;73.65;96117.70;181461;292;621221;-45
2022/09/08 03:36:14;;;;;;;;;;;;;;;22.09;73.65;96112.55;180717;292;620403;-44
2022/09/08 03:37:16;;;;;;;;;;;;;;;22.11;73.67;96119.09;181092;293;621607;-45
2022/09/08 03:38:18;;;;;;;;;;;;;;;22.11;73.66;96114.95;180332;294;620462;-45
2022/09/08 03:39:20;;;;;;;;;;;;;;;22.10;73.65;96111.39;180907;292;619231;-46
2022/09/08 03:40:22;;;;;;;;;;;;;;;22.12;73.66;96116.58;180899;292;620783;-50
2022/09/08 03:41:24;;;;;;;;;;;;;;;22.11;73.66;96110.81;181131;292;621432;-45
2022/09/08 03:42:26;;;;;;;;;;;;;;;22.10;73.67;96111.97;180836;292;620576;-50
2022/09/08 03:43:28;;;;;;;;;;;;;;;22.11;73.65;96114.37;181294;293;620682;-45
2022/09/08 03:44:31;;;;;;;;;;;;;;;22.09;73.67;96109.80;180606;294;621334;-45
2022/09/08 03:45:33;;;;;;;;;;;;;;;22.11;73.67;96112.98;180987;292;620485;-47
2022/09/08 03:46:35;;;;;;;;;;;;;;;22.10;73.67;96108.63;180883;292;620042;-47
2022/09/08 03:47:37;;;;;;;;;;;;;;;22.12;73.66;96115.20;181087;293;621298;-47
2022/09/08 03:48:39;;;;;;;;;;;;;;;22.09;73.66;96109.80;180584;293;619977;-58
2022/09/08 03:49:42;;;;;;;;;;;;;;;22.09;73.68;96108.41;181264;292;621225;-53
2022/09/08 03:50:44;;;;;;;;;;;;;;;22.10;73.68;96112.77;180319;294;619599;-47
2022/09/08 03:51:46;;;;;;;;;;;;;;;22.10;73.69;96110.59;181066;292;621278;-46
2022/09/08 03:52:48;;;;;;;;;;;;;;;22.10;73.69;96113.35;180777;292;623132;-45
2022/09/08 03:53:50;;;;;;;;;;;;;;;22.07;73.68;96107.98;180843;292;619328;-51
2022/09/08 03:54:52;;;;;;;;;;;;;;;22.09;73.70;96107.61;180957;292;620466;-51
2022/09/08 03:55:54;;;;;;;;;;;;;;;22.09;73.72;96109.00;180951;292;620430;-47
2022/09/08 03:56:55;;;;;;;;;;;;;;;22.09;73.73;96107.61;181022;292;619547;-47
2022/09/08 03:57:58;;;;;;;;;;;;;;;22.09;73.75;96102.09;180923;292;619615;-47
2022/09/08 03:59:00;;;;;;;;;;;;;;;22.09;73.77;96104.86;180951;292;621070;-49
2022/09/08 04:00:02;;;;;;;;;;;;;;;22.07;73.77;96101.08;180649;292;620225;-48
2022/09/08 04:01:04;;;;;;;;;;;;;;;22.08;73.75;96097.16;180527;292;620066;-47
2022/09/08 04:02:06;;;;;;;;;;;;;;;22.07;73.77;96098.90;181432;292;620502;-48
2022/09/08 04:03:08;;;;;;;;;;;;;;;22.09;73.78;96100.72;181306;292;620317;-47
2022/09/08 04:04:10;;;;;;;;;;;;;;;22.09;73.79;96103.48;180967;292;621038;-48
2022/09/08 04:05:12;;;;;;;;;;;;;;;22.10;73.81;96102.31;181039;293;618771;-50
2022/09/08 04:06:13;;;;;;;;;;;;;;;22.07;73.82;96103.04;180433;294;621519;-50
2022/09/08 04:07:15;;;;;;;;;;;;;;;22.09;73.82;96106.23;181176;292;621058;-48
2022/09/08 04:08:17;;;;;;;;;;;;;;;22.07;73.85;96098.90;180667;292;620147;-46
2022/09/08 04:09:19;;;;;;;;;;;;;;;22.09;73.86;96107.61;180919;292;621372;-47
2022/09/08 04:10:21;;;;;;;;;;;;;;;22.08;73.84;96099.12;180726;293;620542;-47
2022/09/08 04:11:23;;;;;;;;;;;;;;;22.07;73.86;96092.80;180810;293;619880;-47
2022/09/08 04:12:25;;;;;;;;;;;;;;;22.09;73.84;96097.95;180465;294;620024;-46
2022/09/08 04:13:27;;;;;;;;;;;;;;;22.07;73.84;96097.52;180441;294;621342;-47
2022/09/08 04:14:30;;;;;;;;;;;;;;;22.05;73.84;96099.81;180509;294;621177;-46
2022/09/08 04:15:32;;;;;;;;;;;;;;;22.04;73.87;96100.39;180863;293;620242;-46
2022/09/08 04:16:35;;;;;;;;;;;;;;;22.09;73.88;96106.23;180427;293;620938;-46
2022/09/08 04:17:37;;;;;;;;;;;;;;;22.07;73.87;96100.28;180321;293;620256;-49
2022/09/08 04:18:39;;;;;;;;;;;;;;;22.07;73.88;96104.42;180612;293;618820;-49
2022/09/08 04:19:41;;;;;;;;;;;;;;;22.06;73.87;96105.55;180412;293;620704;-48
2022/09/08 04:20:43;;;;;;;;;;;;;;;22.07;73.88;96114.08;180236;293;621504;-47
2022/09/08 04:21:45;;;;;;;;;;;;;;;22.06;73.86;96113.83;180684;293;621334;-47
2022/09/08 04:22:47;;;;;;;;;;;;;;;22.06;73.88;96109.69;180439;293;620096;-47
2022/09/08 04:23:50;;;;;;;;;;;;;;;22.06;73.89;96117.97;180617;294;621107;-46
2022/09/08 04:24:52;;;;;;;;;;;;;;;22.06;73.88;96122.11;180783;293;620515;-48
2022/09/08 04:25:54;;;;;;;;;;;;;;;22.05;73.90;96113.61;180313;293;621609;-46
2022/09/08 04:26:56;;;;;;;;;;;;;;;22.06;73.91;96133.14;180285;293;621363;-47
2022/09/08 04:27:58;;;;;;;;;;;;;;;22.06;73.93;96129.00;180403;293;619694;-46
2022/09/08 04:29:00;;;;;;;;;;;;;;;22.06;73.92;96126.25;180457;294;621433;-47
2022/09/08 04:30:02;;;;;;;;;;;;;;;22.05;73.93;96115.79;180476;293;621142;-47
2022/09/08 04:31:05;;;;;;;;;;;;;;;22.06;73.94;96133.14;180496;293;621464;-45
2022/09/08 04:32:09;;;;;;;;;;;;;;;22.07;73.95;96141.67;180641;293;620872;-46
2022/09/08 04:33:11;;;;;;;;;;;;;;;;;;180649;293;620216;-47
2022/09/08 04:34:14;;;;;;;;;;;;;;;22.05;73.95;96139.83;180511;294;621084;-48
2022/09/08 04:35:15;;;;;;;;;;;;;;;22.03;73.97;96128.35;180527;293;621384;-47
2022/09/08 04:36:17;;;;;;;;;;;;;;;22.05;73.97;96129.59;180536;293;621247;-46
2022/09/08 04:37:19;;;;;;;;;;;;;;;22.06;73.97;96131.77;180466;293;619602;-46
2022/09/08 04:38:21;;;;;;;;;;;;;;;22.04;73.96;96133.51;180458;293;620793;-49
2022/09/08 04:39:23;;;;;;;;;;;;;;;22.05;73.96;96129.59;180218;294;619457;-46
2022/09/08 04:40:25;;;;;;;;;;;;;;;22.05;73.96;96127.41;180366;293;622601;-48
2022/09/08 04:41:27;;;;;;;;;;;;;;;22.06;73.97;96134.52;180380;294;619660;-47
2022/09/08 04:42:30;;;;;;;;;;;;;;;22.05;73.98;96137.06;180648;293;620818;-47
2022/09/08 04:43:32;;;;;;;;;;;;;;;22.05;73.99;96137.06;180722;293;619378;-47
2022/09/08 04:44:34;;;;;;;;;;;;;;;22.04;74.02;96134.89;180555;294;621087;-46
2022/09/08 04:45:36;;;;;;;;;;;;;;;22.06;74.00;96137.28;180492;293;621369;-48
2022/09/08 04:46:38;;;;;;;;;;;;;;;22.07;74.03;96141.67;180561;293;621044;-48
2022/09/08 04:47:40;;;;;;;;;;;;;;;22.06;74.04;96133.14;180530;294;620367;-48
2022/09/08 04:48:42;;;;;;;;;;;;;;;22.05;74.04;96139.25;180508;294;619887;-46
2022/09/08 04:49:44;;;;;;;;;;;;;;;22.06;74.06;96146.39;180808;293;620605;-47
2022/09/08 04:50:46;;;;;;;;;;;;;;;22.06;74.07;96145.56;180549;294;621468;-46
2022/09/08 04:51:50;;;;;;;;;;;;;;;22.05;74.06;96145.34;180665;293;619388;-50
2022/09/08 04:52:51;;;;;;;;;;;;;;;22.05;74.08;96145.34;180530;293;586142;-48
2022/09/08 04:53:55;;;;;;;;;;;;;;;22.04;74.09;96145.92;180674;293;619228;-46
2022/09/08 04:54:57;;;;;;;;;;;;;;;22.04;74.11;96143.74;180455;294;622143;-48
2022/09/08 04:55:59;;;;;;;;;;;;;;;22.04;74.09;96137.64;180393;293;619366;-47
2022/09/08 04:57:01;;;;;;;;;;;;;;;22.04;74.09;96136.27;180848;293;582331;-46
2022/09/08 04:58:03;;;;;;;;;;;;;;;22.05;74.11;96135.69;180292;294;620017;-46
2022/09/08 04:59:04;;;;;;;;;;;;;;;;;;180242;294;621055;-48
2022/09/08 05:00:07;;;;;;;;;;;;;;;22.06;74.14;96130.38;180261;294;619121;-49
2022/09/08 05:01:09;;;;;;;;;;;;;;;22.04;74.15;96128.57;180344;293;620294;-46
2022/09/08 05:02:11;;;;;;;;;;;;;;;22.05;74.13;96134.30;180488;294;621304;-45
2022/09/08 05:03:13;;;;;;;;;;;;;;;22.03;74.17;96129.73;180358;294;580864;-46
2022/09/08 05:04:15;;;;;;;;;;;;;;;22.04;74.17;96134.89;180589;293;581574;-46
2022/09/08 05:05:17;;;;;;;;;;;;;;;22.03;74.19;96126.97;180431;293;619707;-47
2022/09/08 05:06:19;;;;;;;;;;;;;;;22.04;74.18;96123.84;180563;293;581916;-46
2022/09/08 05:07:20;;;;;;;;;;;;;;;22.04;74.18;96127.98;180775;293;622436;-48
2022/09/08 05:08:22;;;;;;;;;;;;;;;22.05;74.20;96130.16;180735;294;620350;-47
2022/09/08 05:09:24;;;;;;;;;;;;;;;22.03;74.21;96122.83;180465;293;621119;-48
2022/09/08 05:10:27;;;;;;;;;;;;;;;;;;180537;293;620419;-48
2022/09/08 05:11:29;;;;;;;;;;;;;;;22.03;74.25;96126.97;180850;293;623019;-47
2022/09/08 05:12:32;;;;;;;;;;;;;;;22.02;74.24;96128.13;180651;293;619185;-48
2022/09/08 05:13:34;;;;;;;;;;;;;;;22.03;74.25;96131.11;180744;293;621796;-47
2022/09/08 05:14:35;;;;;;;;;;;;;;;22.04;74.27;96137.64;180528;293;621421;-46
2022/09/08 05:15:37;;;;;;;;;;;;;;;22.04;74.27;96132.70;180388;294;621818;-47
2022/09/08 05:16:39;;;;;;;;;;;;;;;22.05;74.27;96135.11;180311;294;617775;-51
2022/09/08 05:17:41;;;;;;;;;;;;;;;22.04;74.26;96137.64;180390;294;620905;-50
2022/09/08 05:18:43;;;;;;;;;;;;;;;22.02;74.26;96130.89;180496;293;621670;-46
2022/09/08 05:19:49;;;;;;;;;;;;;;;22.02;74.26;96132.27;180508;294;621443;-45
2022/09/08 05:20:49;;;;;;;;;;;;;;;22.02;74.27;96134.45;180177;293;592723;-47
2022/09/08 05:21:51;;;;;;;;;;;;;;;22.02;74.28;96129.52;180053;293;621388;-46
2022/09/08 05:22:53;;;;;;;;;;;;;;;22.04;74.28;96131.33;180377;294;619324;-45
2022/09/08 05:23:55;;;;;;;;;;;;;;;22.03;74.31;96126.97;180302;294;620916;-45
2022/09/08 05:24:57;;;;;;;;;;;;;;;22.02;74.30;96122.61;180634;293;621000;-46
2022/09/08 05:26:00;;;;;;;;;;;;;;;22.04;74.28;96127.19;180581;293;620059;-46